sensor_id;sensor_type;location;lat;lon;timestamp;P1;durP1;ratioP1;P2;durP2;ratioP2
27357;SDS011;14831;50.474;7.616;2022-08-21T00:04:58;1.2;;;1.0;;
27357;SDS011;14831;50.474;7.616;2022-08-21T00:09:58;1.2;;;1.0;;
27357;SDS011;14831;50.474;7.616;2022-08-21T00:14:58;1.1;;;1.1;;
27357;SDS011;14831;50.474;7.616;2022-08-21T00:19:58;1.1;;;1.1;;
27357;SDS011;14831;50.474;7.616;2022-08-21T00:24:58;1.1;;;1.1;;
27357;SDS011;14831;50.474;7.616;2022-08-21T00:29:58;1.1;;;1.1;;
27357;SDS011;14831;50.474;7.616;2022-08-21T00:34:58;1.1;;;1.1;;
27357;SDS011;14831;50.474;7.616;2022-08-21T00:39:58;1.1;;;1.1;;
27357;SDS011;14831;50.474;7.616;2022-08-21T00:44:58;1.2;;;1.1;;
27357;SDS011;14831;50.474;7.616;2022-08-21T00:49:58;1.2;;;1.1;;
27357;SDS011;14831;50.474;7.616;2022-08-21T00:54:59;1.2;;;1.1;;
27357;SDS011;14831;50.474;7.616;2022-08-21T01:00:00;1.2;;;1.1;;
27357;SDS011;14831;50.474;7.616;2022-08-21T01:04:58;1.2;;;1.1;;
27357;SDS011;14831;50.474;7.616;2022-08-21T01:09:58;1.2;;;1.1;;
27357;SDS011;14831;50.474;7.616;2022-08-21T01:14:58;2.7;;;1.3;;
27357;SDS011;14831;50.474;7.616;2022-08-21T01:19:58;2.7;;;1.3;;
27357;SDS011;14831;50.474;7.616;2022-08-21T01:24:58;2.7;;;1.3;;
27357;SDS011;14831;50.474;7.616;2022-08-21T01:30:04;2.7;;;1.3;;
27357;SDS011;14831;50.474;7.616;2022-08-21T01:34:58;2.7;;;1.3;;
27357;SDS011;14831;50.474;7.616;2022-08-21T01:39:58;2.7;;;1.3;;
27357;SDS011;14831;50.474;7.616;2022-08-21T01:44:58;1.1;;;1.0;;
27357;SDS011;14831;50.474;7.616;2022-08-21T01:49:58;1.1;;;1.0;;
27357;SDS011;14831;50.474;7.616;2022-08-21T01:54:58;1.1;;;1.0;;
27357;SDS011;14831;50.474;7.616;2022-08-21T01:59:58;1.1;;;1.0;;
27357;SDS011;14831;50.474;7.616;2022-08-21T02:04:58;1.1;;;1.0;;
27357;SDS011;14831;50.474;7.616;2022-08-21T02:09:58;1.1;;;1.0;;
27357;SDS011;14831;50.474;7.616;2022-08-21T02:14:58;1.2;;;1.1;;
27357;SDS011;14831;50.474;7.616;2022-08-21T02:19:58;1.2;;;1.1;;
27357;SDS011;14831;50.474;7.616;2022-08-21T02:24:58;1.2;;;1.1;;
27357;SDS011;14831;50.474;7.616;2022-08-21T02:29:58;1.2;;;1.1;;
27357;SDS011;14831;50.474;7.616;2022-08-21T02:34:58;1.2;;;1.1;;
27357;SDS011;14831;50.474;7.616;2022-08-21T02:39:59;1.2;;;1.1;;
27357;SDS011;14831;50.474;7.616;2022-08-21T02:44:58;1.1;;;1.1;;
27357;SDS011;14831;50.474;7.616;2022-08-21T02:49:58;1.1;;;1.1;;
27357;SDS011;14831;50.474;7.616;2022-08-21T02:54:58;1.1;;;1.1;;
27357;SDS011;14831;50.474;7.616;2022-08-21T02:59:58;1.1;;;1.1;;
27357;SDS011;14831;50.474;7.616;2022-08-21T03:04:58;1.1;;;1.1;;
27357;SDS011;14831;50.474;7.616;2022-08-21T03:09:58;1.1;;;1.1;;
27357;SDS011;14831;50.474;7.616;2022-08-21T03:14:58;1.2;;;1.1;;
27357;SDS011;14831;50.474;7.616;2022-08-21T03:19:58;1.2;;;1.1;;
27357;SDS011;14831;50.474;7.616;2022-08-21T03:24:58;1.2;;;1.1;;
27357;SDS011;14831;50.474;7.616;2022-08-21T03:29:58;1.2;;;1.1;;
27357;SDS011;14831;50.474;7.616;2022-08-21T03:34:58;1.2;;;1.1;;
27357;SDS011;14831;50.474;7.616;2022-08-21T03:39:58;1.2;;;1.1;;
27357;SDS011;14831;50.474;7.616;2022-08-21T03:44:58;1.3;;;1.2;;
27357;SDS011;14831;50.474;7.616;2022-08-21T03:49:58;1.3;;;1.2;;
27357;SDS011;14831;50.474;7.616;2022-08-21T03:54:58;1.3;;;1.2;;
27357;SDS011;14831;50.474;7.616;2022-08-21T03:59:58;1.3;;;1.2;;
27357;SDS011;14831;50.474;7.616;2022-08-21T04:04:58;1.3;;;1.2;;
27357;SDS011;14831;50.474;7.616;2022-08-21T04:09:58;1.3;;;1.2;;
27357;SDS011;14831;50.474;7.616;2022-08-21T04:14:58;1.1;;;1.1;;
27357;SDS011;14831;50.474;7.616;2022-08-21T04:19:58;1.1;;;1.1;;
27357;SDS011;14831;50.474;7.616;2022-08-21T04:24:58;1.1;;;1.1;;
27357;SDS011;14831;50.474;7.616;2022-08-21T04:29:58;1.1;;;1.1;;
27357;SDS011;14831;50.474;7.616;2022-08-21T04:34:58;1.1;;;1.1;;
27357;SDS011;14831;50.474;7.616;2022-08-21T04:39:58;1.1;;;1.1;;
27357;SDS011;14831;50.474;7.616;2022-08-21T04:44:58;1.2;;;1.1;;
27357;SDS011;14831;50.474;7.616;2022-08-21T04:49:58;1.2;;;1.1;;
27357;SDS011;14831;50.474;7.616;2022-08-21T04:54:58;1.2;;;1.1;;
27357;SDS011;14831;50.474;7.616;2022-08-21T04:59:58;1.2;;;1.1;;
27357;SDS011;14831;50.474;7.616;2022-08-21T05:04:59;1.2;;;1.1;;
27357;SDS011;14831;50.474;7.616;2022-08-21T05:09:59;1.2;;;1.1;;
27357;SDS011;14831;50.474;7.616;2022-08-21T05:14:58;1.1;;;1.1;;
27357;SDS011;14831;50.474;7.616;2022-08-21T05:19:58;1.1;;;1.1;;
27357;SDS011;14831;50.474;7.616;2022-08-21T05:24:58;1.1;;;1.1;;
27357;SDS011;14831;50.474;7.616;2022-08-21T05:29:58;1.1;;;1.1;;
27357;SDS011;14831;50.474;7.616;2022-08-21T05:34:58;1.1;;;1.1;;
27357;SDS011;14831;50.474;7.616;2022-08-21T05:39:59;1.1;;;1.1;;
27357;SDS011;14831;50.474;7.616;2022-08-21T05:44:58;1.4;;;1.3;;
27357;SDS011;14831;50.474;7.616;2022-08-21T05:49:58;1.4;;;1.3;;
27357;SDS011;14831;50.474;7.616;2022-08-21T05:54:58;1.4;;;1.3;;
27357;SDS011;14831;50.474;7.616;2022-08-21T05:59:58;1.4;;;1.3;;
27357;SDS011;14831;50.474;7.616;2022-08-21T06:04:58;1.4;;;1.3;;
27357;SDS011;14831;50.474;7.616;2022-08-21T06:09:58;1.4;;;1.3;;
27357;SDS011;14831;50.474;7.616;2022-08-21T06:14:58;1.0;;;0.9;;
27357;SDS011;14831;50.474;7.616;2022-08-21T06:19:58;1.0;;;0.9;;
27357;SDS011;14831;50.474;7.616;2022-08-21T06:24:58;1.0;;;0.9;;
27357;SDS011;14831;50.474;7.616;2022-08-21T06:29:58;1.0;;;0.9;;
27357;SDS011;14831;50.474;7.616;2022-08-21T06:34:58;1.0;;;0.9;;
27357;SDS011;14831;50.474;7.616;2022-08-21T06:39:58;1.0;;;0.9;;
27357;SDS011;14831;50.474;7.616;2022-08-21T06:44:58;0.9;;;0.9;;
27357;SDS011;14831;50.474;7.616;2022-08-21T06:49:58;0.9;;;0.9;;
27357;SDS011;14831;50.474;7.616;2022-08-21T06:54:58;0.9;;;0.9;;
27357;SDS011;14831;50.474;7.616;2022-08-21T06:59:58;0.9;;;0.9;;
27357;SDS011;14831;50.474;7.616;2022-08-21T07:04:58;0.9;;;0.9;;
27357;SDS011;14831;50.474;7.616;2022-08-21T07:09:58;0.9;;;0.9;;
27357;SDS011;14831;50.474;7.616;2022-08-21T07:14:58;1.0;;;1.0;;
27357;SDS011;14831;50.474;7.616;2022-08-21T07:19:58;1.0;;;1.0;;
27357;SDS011;14831;50.474;7.616;2022-08-21T07:24:58;1.0;;;1.0;;
27357;SDS011;14831;50.474;7.616;2022-08-21T07:29:58;1.0;;;1.0;;
27357;SDS011;14831;50.474;7.616;2022-08-21T07:34:58;1.0;;;1.0;;
27357;SDS011;14831;50.474;7.616;2022-08-21T07:39:58;1.0;;;1.0;;
27357;SDS011;14831;50.474;7.616;2022-08-21T07:44:58;1.0;;;1.0;;
27357;SDS011;14831;50.474;7.616;2022-08-21T07:49:58;1.0;;;1.0;;
27357;SDS011;14831;50.474;7.616;2022-08-21T07:54:58;1.0;;;1.0;;
27357;SDS011;14831;50.474;7.616;2022-08-21T07:59:58;1.0;;;1.0;;
27357;SDS011;14831;50.474;7.616;2022-08-21T08:04:59;1.0;;;1.0;;
27357;SDS011;14831;50.474;7.616;2022-08-21T08:09:58;1.0;;;1.0;;
27357;SDS011;14831;50.474;7.616;2022-08-21T08:14:58;1.3;;;1.2;;
27357;SDS011;14831;50.474;7.616;2022-08-21T08:19:58;1.3;;;1.2;;
27357;SDS011;14831;50.474;7.616;2022-08-21T08:24:58;1.3;;;1.2;;
27357;SDS011;14831;50.474;7.616;2022-08-21T08:29:58;1.3;;;1.2;;
27357;SDS011;14831;50.474;7.616;2022-08-21T08:34:58;1.3;;;1.2;;
27357;SDS011;14831;50.474;7.616;2022-08-21T08:39:58;1.3;;;1.2;;
27357;SDS011;14831;50.474;7.616;2022-08-21T08:45:01;1.1;;;1.0;;
27357;SDS011;14831;50.474;7.616;2022-08-21T08:50:03;1.1;;;1.0;;
27357;SDS011;14831;50.474;7.616;2022-08-21T08:55:03;1.1;;;1.0;;
27357;SDS011;14831;50.474;7.616;2022-08-21T09:00:00;1.1;;;1.0;;
27357;SDS011;14831;50.474;7.616;2022-08-21T09:05:00;1.1;;;1.0;;
27357;SDS011;14831;50.474;7.616;2022-08-21T09:10:05;1.1;;;1.0;;
27357;SDS011;14831;50.474;7.616;2022-08-21T09:15:03;0.9;;;0.9;;
27357;SDS011;14831;50.474;7.616;2022-08-21T09:20:23;0.9;;;0.9;;
27357;SDS011;14831;50.474;7.616;2022-08-21T09:25:04;0.9;;;0.9;;
27357;SDS011;14831;50.474;7.616;2022-08-21T09:29:58;0.9;;;0.9;;
27357;SDS011;14831;50.474;7.616;2022-08-21T09:35:00;0.9;;;0.9;;
27357;SDS011;14831;50.474;7.616;2022-08-21T09:39:58;0.9;;;0.9;;
27357;SDS011;14831;50.474;7.616;2022-08-21T09:45:10;0.9;;;0.9;;
27357;SDS011;14831;50.474;7.616;2022-08-21T09:50:09;0.9;;;0.9;;
27357;SDS011;14831;50.474;7.616;2022-08-21T09:54:58;0.9;;;0.9;;
27357;SDS011;14831;50.474;7.616;2022-08-21T10:00:08;0.9;;;0.9;;
27357;SDS011;14831;50.474;7.616;2022-08-21T10:05:00;0.9;;;0.9;;
27357;SDS011;14831;50.474;7.616;2022-08-21T10:10:01;0.9;;;0.9;;
27357;SDS011;14831;50.474;7.616;2022-08-21T10:15:03;0.8;;;0.8;;
27357;SDS011;14831;50.474;7.616;2022-08-21T10:20:03;0.8;;;0.8;;
27357;SDS011;14831;50.474;7.616;2022-08-21T10:25:06;0.8;;;0.8;;
27357;SDS011;14831;50.474;7.616;2022-08-21T10:30:04;0.8;;;0.8;;
27357;SDS011;14831;50.474;7.616;2022-08-21T10:35:07;0.8;;;0.8;;
27357;SDS011;14831;50.474;7.616;2022-08-21T10:40:10;0.8;;;0.8;;
27357;SDS011;14831;50.474;7.616;2022-08-21T10:45:08;1.5;;;1.0;;
27357;SDS011;14831;50.474;7.616;2022-08-21T10:50:04;1.5;;;1.0;;
27357;SDS011;14831;50.474;7.616;2022-08-21T10:55:04;1.5;;;1.0;;
27357;SDS011;14831;50.474;7.616;2022-08-21T11:00:03;1.5;;;1.0;;
27357;SDS011;14831;50.474;7.616;2022-08-21T11:05:02;1.5;;;1.0;;
27357;SDS011;14831;50.474;7.616;2022-08-21T11:10:03;1.5;;;1.0;;
27357;SDS011;14831;50.474;7.616;2022-08-21T11:15:02;1.7;;;1.0;;
27357;SDS011;14831;50.474;7.616;2022-08-21T11:20:04;1.7;;;1.0;;
27357;SDS011;14831;50.474;7.616;2022-08-21T11:25:03;1.7;;;1.0;;
27357;SDS011;14831;50.474;7.616;2022-08-21T11:29:59;1.7;;;1.0;;
27357;SDS011;14831;50.474;7.616;2022-08-21T11:35:06;1.7;;;1.0;;
27357;SDS011;14831;50.474;7.616;2022-08-21T11:40:04;1.7;;;1.0;;
27357;SDS011;14831;50.474;7.616;2022-08-21T11:45:08;1.0;;;0.9;;
27357;SDS011;14831;50.474;7.616;2022-08-21T11:50:09;1.0;;;0.9;;
27357;SDS011;14831;50.474;7.616;2022-08-21T11:55:02;1.0;;;0.9;;
27357;SDS011;14831;50.474;7.616;2022-08-21T12:00:03;1.0;;;0.9;;
27357;SDS011;14831;50.474;7.616;2022-08-21T12:05:02;1.0;;;0.9;;
27357;SDS011;14831;50.474;7.616;2022-08-21T12:09:59;1.0;;;0.9;;
27357;SDS011;14831;50.474;7.616;2022-08-21T12:15:22;2.3;;;1.8;;
27357;SDS011;14831;50.474;7.616;2022-08-21T12:20:00;2.3;;;1.8;;
27357;SDS011;14831;50.474;7.616;2022-08-21T12:25:06;2.3;;;1.8;;
27357;SDS011;14831;50.474;7.616;2022-08-21T12:30:00;2.3;;;1.8;;
27357;SDS011;14831;50.474;7.616;2022-08-21T12:35:05;2.3;;;1.8;;
27357;SDS011;14831;50.474;7.616;2022-08-21T12:39:59;2.3;;;1.8;;
27357;SDS011;14831;50.474;7.616;2022-08-21T12:45:00;5.1;;;3.3;;
27357;SDS011;14831;50.474;7.616;2022-08-21T12:50:03;5.1;;;3.3;;
27357;SDS011;14831;50.474;7.616;2022-08-21T12:54:58;5.1;;;3.3;;
27357;SDS011;14831;50.474;7.616;2022-08-21T13:00:01;5.1;;;3.3;;
27357;SDS011;14831;50.474;7.616;2022-08-21T13:05:01;5.1;;;3.3;;
27357;SDS011;14831;50.474;7.616;2022-08-21T13:10:02;5.1;;;3.3;;
27357;SDS011;14831;50.474;7.616;2022-08-21T13:15:02;4.7;;;2.7;;
27357;SDS011;14831;50.474;7.616;2022-08-21T13:20:00;4.7;;;2.7;;
27357;SDS011;14831;50.474;7.616;2022-08-21T13:24:58;4.7;;;2.7;;
27357;SDS011;14831;50.474;7.616;2022-08-21T13:30:06;4.7;;;2.7;;
27357;SDS011;14831;50.474;7.616;2022-08-21T13:34:58;4.7;;;2.7;;
27357;SDS011;14831;50.474;7.616;2022-08-21T13:39:58;4.7;;;2.7;;
27357;SDS011;14831;50.474;7.616;2022-08-21T13:44:58;4.0;;;2.2;;
27357;SDS011;14831;50.474;7.616;2022-08-21T13:49:59;4.0;;;2.2;;
27357;SDS011;14831;50.474;7.616;2022-08-21T13:55:00;4.0;;;2.2;;
27357;SDS011;14831;50.474;7.616;2022-08-21T14:00:18;4.0;;;2.2;;
27357;SDS011;14831;50.474;7.616;2022-08-21T14:05:00;4.0;;;2.2;;
27357;SDS011;14831;50.474;7.616;2022-08-21T14:10:01;4.0;;;2.2;;
27357;SDS011;14831;50.474;7.616;2022-08-21T14:15:02;2.7;;;1.9;;
27357;SDS011;14831;50.474;7.616;2022-08-21T14:19:58;2.7;;;1.9;;
27357;SDS011;14831;50.474;7.616;2022-08-21T14:25:01;2.7;;;1.9;;
27357;SDS011;14831;50.474;7.616;2022-08-21T14:30:00;2.7;;;1.9;;
27357;SDS011;14831;50.474;7.616;2022-08-21T14:34:58;2.7;;;1.9;;
27357;SDS011;14831;50.474;7.616;2022-08-21T14:39:58;2.7;;;1.9;;
27357;SDS011;14831;50.474;7.616;2022-08-21T14:45:02;3.1;;;1.7;;
27357;SDS011;14831;50.474;7.616;2022-08-21T14:49:58;3.1;;;1.7;;
27357;SDS011;14831;50.474;7.616;2022-08-21T14:54:58;3.1;;;1.7;;
27357;SDS011;14831;50.474;7.616;2022-08-21T14:59:58;3.1;;;1.7;;
27357;SDS011;14831;50.474;7.616;2022-08-21T15:04:58;3.1;;;1.7;;
27357;SDS011;14831;50.474;7.616;2022-08-21T15:09:58;3.1;;;1.7;;
27357;SDS011;14831;50.474;7.616;2022-08-21T15:14:58;3.2;;;1.8;;
27357;SDS011;14831;50.474;7.616;2022-08-21T15:19:58;3.2;;;1.8;;
27357;SDS011;14831;50.474;7.616;2022-08-21T15:24:58;3.2;;;1.8;;
27357;SDS011;14831;50.474;7.616;2022-08-21T15:29:58;3.2;;;1.8;;
27357;SDS011;14831;50.474;7.616;2022-08-21T15:34:58;3.2;;;1.8;;
27357;SDS011;14831;50.474;7.616;2022-08-21T15:39:58;3.2;;;1.8;;
27357;SDS011;14831;50.474;7.616;2022-08-21T15:44:58;1.7;;;1.6;;
27357;SDS011;14831;50.474;7.616;2022-08-21T15:49:58;1.7;;;1.6;;
27357;SDS011;14831;50.474;7.616;2022-08-21T15:54:58;1.7;;;1.6;;
27357;SDS011;14831;50.474;7.616;2022-08-21T16:00:00;1.7;;;1.6;;
27357;SDS011;14831;50.474;7.616;2022-08-21T16:04:58;1.7;;;1.6;;
27357;SDS011;14831;50.474;7.616;2022-08-21T16:09:58;1.7;;;1.6;;
27357;SDS011;14831;50.474;7.616;2022-08-21T16:14:59;1.9;;;1.4;;
27357;SDS011;14831;50.474;7.616;2022-08-21T16:20:00;1.9;;;1.4;;
27357;SDS011;14831;50.474;7.616;2022-08-21T16:24:58;1.9;;;1.4;;
27357;SDS011;14831;50.474;7.616;2022-08-21T16:29:58;1.9;;;1.4;;
27357;SDS011;14831;50.474;7.616;2022-08-21T16:34:58;1.9;;;1.4;;
27357;SDS011;14831;50.474;7.616;2022-08-21T16:39:58;1.9;;;1.4;;
27357;SDS011;14831;50.474;7.616;2022-08-21T16:44:58;1.8;;;1.6;;
27357;SDS011;14831;50.474;7.616;2022-08-21T16:49:58;1.8;;;1.6;;
27357;SDS011;14831;50.474;7.616;2022-08-21T16:54:58;1.8;;;1.6;;
27357;SDS011;14831;50.474;7.616;2022-08-21T16:59:58;1.8;;;1.6;;
27357;SDS011;14831;50.474;7.616;2022-08-21T17:04:58;1.8;;;1.6;;
27357;SDS011;14831;50.474;7.616;2022-08-21T17:09:58;1.8;;;1.6;;
27357;SDS011;14831;50.474;7.616;2022-08-21T17:15:04;1.8;;;1.6;;
27357;SDS011;14831;50.474;7.616;2022-08-21T17:19:58;1.8;;;1.6;;
27357;SDS011;14831;50.474;7.616;2022-08-21T17:24:58;1.8;;;1.6;;
27357;SDS011;14831;50.474;7.616;2022-08-21T17:29:58;1.8;;;1.6;;
27357;SDS011;14831;50.474;7.616;2022-08-21T17:34:58;1.8;;;1.6;;
27357;SDS011;14831;50.474;7.616;2022-08-21T17:39:58;1.8;;;1.6;;
27357;SDS011;14831;50.474;7.616;2022-08-21T17:44:58;2.5;;;1.8;;
27357;SDS011;14831;50.474;7.616;2022-08-21T17:49:58;2.5;;;1.8;;
27357;SDS011;14831;50.474;7.616;2022-08-21T17:54:58;2.5;;;1.8;;
27357;SDS011;14831;50.474;7.616;2022-08-21T17:59:58;2.5;;;1.8;;
27357;SDS011;14831;50.474;7.616;2022-08-21T18:04:58;2.5;;;1.8;;
27357;SDS011;14831;50.474;7.616;2022-08-21T18:09:58;2.5;;;1.8;;
27357;SDS011;14831;50.474;7.616;2022-08-21T18:14:59;3.1;;;1.7;;
27357;SDS011;14831;50.474;7.616;2022-08-21T18:19:58;3.1;;;1.7;;
27357;SDS011;14831;50.474;7.616;2022-08-21T18:24:58;3.1;;;1.7;;
27357;SDS011;14831;50.474;7.616;2022-08-21T18:29:59;3.1;;;1.7;;
27357;SDS011;14831;50.474;7.616;2022-08-21T18:34:59;3.1;;;1.7;;
27357;SDS011;14831;50.474;7.616;2022-08-21T18:39:58;3.1;;;1.7;;
27357;SDS011;14831;50.474;7.616;2022-08-21T18:45:00;1.9;;;1.6;;
27357;SDS011;14831;50.474;7.616;2022-08-21T18:49:58;1.9;;;1.6;;
27357;SDS011;14831;50.474;7.616;2022-08-21T18:54:58;1.9;;;1.6;;
27357;SDS011;14831;50.474;7.616;2022-08-21T18:59:58;1.9;;;1.6;;
27357;SDS011;14831;50.474;7.616;2022-08-21T19:04:58;1.9;;;1.6;;
27357;SDS011;14831;50.474;7.616;2022-08-21T19:09:58;1.9;;;1.6;;
27357;SDS011;14831;50.474;7.616;2022-08-21T19:14:58;3.0;;;1.6;;
27357;SDS011;14831;50.474;7.616;2022-08-21T19:20:02;3.0;;;1.6;;
27357;SDS011;14831;50.474;7.616;2022-08-21T19:24:58;3.0;;;1.6;;
27357;SDS011;14831;50.474;7.616;2022-08-21T19:29:58;3.0;;;1.6;;
27357;SDS011;14831;50.474;7.616;2022-08-21T19:34:58;3.0;;;1.6;;
27357;SDS011;14831;50.474;7.616;2022-08-21T19:39:58;3.0;;;1.6;;
27357;SDS011;14831;50.474;7.616;2022-08-21T19:44:58;3.0;;;1.7;;
27357;SDS011;14831;50.474;7.616;2022-08-21T19:49:59;3.0;;;1.7;;
27357;SDS011;14831;50.474;7.616;2022-08-21T19:54:58;3.0;;;1.7;;
27357;SDS011;14831;50.474;7.616;2022-08-21T19:59:58;3.0;;;1.7;;
27357;SDS011;14831;50.474;7.616;2022-08-21T20:04:58;3.0;;;1.7;;
27357;SDS011;14831;50.474;7.616;2022-08-21T20:09:58;3.0;;;1.7;;
27357;SDS011;14831;50.474;7.616;2022-08-21T20:14:58;2.0;;;1.4;;
27357;SDS011;14831;50.474;7.616;2022-08-21T20:19:58;2.0;;;1.4;;
27357;SDS011;14831;50.474;7.616;2022-08-21T20:24:58;2.0;;;1.4;;
27357;SDS011;14831;50.474;7.616;2022-08-21T20:29:58;2.0;;;1.4;;
27357;SDS011;14831;50.474;7.616;2022-08-21T20:34:58;2.0;;;1.4;;
27357;SDS011;14831;50.474;7.616;2022-08-21T20:39:58;2.0;;;1.4;;
27357;SDS011;14831;50.474;7.616;2022-08-21T20:44:58;1.9;;;1.4;;
27357;SDS011;14831;50.474;7.616;2022-08-21T20:50:03;1.9;;;1.4;;
27357;SDS011;14831;50.474;7.616;2022-08-21T20:55:02;1.9;;;1.4;;
27357;SDS011;14831;50.474;7.616;2022-08-21T21:00:04;1.9;;;1.4;;
27357;SDS011;14831;50.474;7.616;2022-08-21T21:05:02;1.9;;;1.4;;
27357;SDS011;14831;50.474;7.616;2022-08-21T21:10:00;1.9;;;1.4;;
27357;SDS011;14831;50.474;7.616;2022-08-21T21:15:04;2.5;;;1.4;;
27357;SDS011;14831;50.474;7.616;2022-08-21T21:20:06;2.5;;;1.4;;
27357;SDS011;14831;50.474;7.616;2022-08-21T21:25:03;2.5;;;1.4;;
27357;SDS011;14831;50.474;7.616;2022-08-21T21:30:02;2.5;;;1.4;;
27357;SDS011;14831;50.474;7.616;2022-08-21T21:34:58;2.5;;;1.4;;
27357;SDS011;14831;50.474;7.616;2022-08-21T21:40:06;2.5;;;1.4;;
27357;SDS011;14831;50.474;7.616;2022-08-21T21:45:11;1.4;;;1.2;;
27357;SDS011;14831;50.474;7.616;2022-08-21T21:50:13;1.4;;;1.2;;
27357;SDS011;14831;50.474;7.616;2022-08-21T21:55:08;1.4;;;1.2;;
27357;SDS011;14831;50.474;7.616;2022-08-21T22:00:05;1.4;;;1.2;;
27357;SDS011;14831;50.474;7.616;2022-08-21T22:05:05;1.4;;;1.2;;
27357;SDS011;14831;50.474;7.616;2022-08-21T22:10:02;1.4;;;1.2;;
27357;SDS011;14831;50.474;7.616;2022-08-21T22:14:58;1.8;;;1.4;;
27357;SDS011;14831;50.474;7.616;2022-08-21T22:20:02;1.8;;;1.4;;
27357;SDS011;14831;50.474;7.616;2022-08-21T22:25:03;1.8;;;1.4;;
27357;SDS011;14831;50.474;7.616;2022-08-21T22:30:00;1.8;;;1.4;;
27357;SDS011;14831;50.474;7.616;2022-08-21T22:35:01;1.8;;;1.4;;
27357;SDS011;14831;50.474;7.616;2022-08-21T22:39:58;1.8;;;1.4;;
27357;SDS011;14831;50.474;7.616;2022-08-21T22:45:00;2.4;;;1.6;;
27357;SDS011;14831;50.474;7.616;2022-08-21T22:49:58;2.4;;;1.6;;
27357;SDS011;14831;50.474;7.616;2022-08-21T22:55:02;2.4;;;1.6;;
27357;SDS011;14831;50.474;7.616;2022-08-21T23:00:05;2.4;;;1.6;;
27357;SDS011;14831;50.474;7.616;2022-08-21T23:05:01;2.4;;;1.6;;
27357;SDS011;14831;50.474;7.616;2022-08-21T23:09:58;2.4;;;1.6;;
27357;SDS011;14831;50.474;7.616;2022-08-21T23:14:59;1.7;;;1.3;;
27357;SDS011;14831;50.474;7.616;2022-08-21T23:20:04;1.7;;;1.3;;
27357;SDS011;14831;50.474;7.616;2022-08-21T23:25:06;1.7;;;1.3;;
27357;SDS011;14831;50.474;7.616;2022-08-21T23:30:03;1.7;;;1.3;;
27357;SDS011;14831;50.474;7.616;2022-08-21T23:35:05;1.7;;;1.3;;
27357;SDS011;14831;50.474;7.616;2022-08-21T23:40:11;1.7;;;1.3;;
27357;SDS011;14831;50.474;7.616;2022-08-21T23:45:05;1.5;;;1.3;;
27357;SDS011;14831;50.474;7.616;2022-08-21T23:50:03;1.5;;;1.3;;
27357;SDS011;14831;50.474;7.616;2022-08-21T23:55:15;1.5;;;1.3;;
